createdAt,value
2022-12-26T00:01:31.504Z,80.27
2022-12-26T00:03:59.997Z,80.30
2022-12-26T00:06:30.755Z,80.04
2022-12-26T00:09:02.425Z,80.23
2022-12-26T00:11:31.342Z,80.07
2022-12-26T00:14:01.344Z,80.40
2022-12-26T00:16:30.153Z,80.32
2022-12-26T00:18:58.604Z,80.31
2022-12-26T00:21:28.975Z,80.28
2022-12-26T00:23:59.008Z,80.51
2022-12-26T00:26:31.660Z,80.28
2022-12-26T00:29:00.574Z,80.25
2022-12-26T00:31:32.025Z,80.72
2022-12-26T00:34:01.097Z,80.46
2022-12-26T00:36:31.383Z,80.30
2022-12-26T00:39:01.086Z,80.34
2022-12-26T00:41:31.017Z,80.46
2022-12-26T00:43:59.480Z,80.36
2022-12-26T00:46:28.611Z,80.52
2022-12-26T00:48:57.965Z,80.78
2022-12-26T00:51:26.323Z,80.85
2022-12-26T00:53:54.835Z,80.56
2022-12-26T00:56:23.270Z,80.83
2022-12-26T00:58:53.391Z,80.50
2022-12-26T01:01:23.847Z,80.46
2022-12-26T01:03:53.022Z,80.47
2022-12-26T01:06:21.360Z,80.60
2022-12-26T01:08:49.835Z,80.72
2022-12-26T01:11:40.174Z,80.69
2022-12-26T01:14:12.761Z,80.71
2022-12-26T01:16:42.728Z,80.91
2022-12-26T01:19:12.100Z,80.94
2022-12-26T01:21:40.954Z,80.93
2022-12-26T01:24:09.459Z,80.69
2022-12-26T01:26:38.036Z,81.14
2022-12-26T01:29:06.460Z,81.08
2022-12-26T01:31:36.264Z,80.95
2022-12-26T01:34:04.624Z,80.87
2022-12-26T01:36:32.984Z,80.84
2022-12-26T01:39:01.282Z,80.92
2022-12-26T01:41:30.371Z,80.84
2022-12-26T01:44:00.694Z,80.90
2022-12-26T01:46:33.533Z,80.93
2022-12-26T01:49:10.200Z,80.86
2022-12-26T01:51:42.625Z,80.93
2022-12-26T01:54:37.639Z,81.03
2022-12-26T01:57:04.445Z,80.99
2022-12-26T01:59:37.219Z,80.87
2022-12-26T02:02:06.784Z,81.02
2022-12-26T02:04:59.632Z,81.20
2022-12-26T02:07:28.251Z,80.97
2022-12-26T02:09:56.697Z,81.06
2022-12-26T02:12:37.233Z,81.12
2022-12-26T02:15:09.132Z,81.11
2022-12-26T02:17:38.381Z,81.06
2022-12-26T02:20:18.241Z,81.28
2022-12-26T02:23:33.248Z,81.25
2022-12-26T02:26:34.336Z,81.15
2022-12-26T02:29:38.008Z,81.26
2022-12-26T02:32:16.875Z,80.99
2022-12-26T02:34:54.483Z,80.80
2022-12-26T02:37:42.713Z,81.27
2022-12-26T02:40:32.506Z,80.86
2022-12-26T02:43:07.759Z,81.18
2022-12-26T02:46:08.637Z,81.31
2022-12-26T02:48:48.520Z,81.47
2022-12-26T02:51:43.512Z,81.34
2022-12-26T02:54:50.677Z,81.38
2022-12-26T02:57:40.310Z,81.48
2022-12-26T03:00:33.105Z,81.37
2022-12-26T03:03:22.441Z,81.21
2022-12-26T03:06:16.039Z,81.25
2022-12-26T03:09:12.338Z,81.21
2022-12-26T03:12:00.260Z,81.14
2022-12-26T03:14:33.321Z,81.54
2022-12-26T03:17:20.877Z,81.41
2022-12-26T03:20:01.192Z,81.21
2022-12-26T03:22:37.979Z,81.26
2022-12-26T03:25:27.850Z,81.56
2022-12-26T03:27:56.332Z,81.03
2022-12-26T03:30:42.679Z,81.50
2022-12-26T03:33:31.558Z,81.45
2022-12-26T03:36:00.612Z,81.11
2022-12-26T03:38:35.995Z,81.13
2022-12-26T03:41:29.115Z,81.17
2022-12-26T03:44:38.685Z,81.39
2022-12-26T03:47:35.971Z,81.38
2022-12-26T03:50:31.414Z,81.30
2022-12-26T03:53:23.810Z,81.43
2022-12-26T03:56:17.727Z,81.58
2022-12-26T03:59:09.787Z,81.50
2022-12-26T04:01:58.159Z,81.03
2022-12-26T04:04:49.137Z,81.38
2022-12-26T04:07:56.468Z,81.17
2022-12-26T04:10:49.795Z,81.27
2022-12-26T04:13:42.273Z,81.01
2022-12-26T04:16:34.571Z,81.61
2022-12-26T04:19:25.936Z,81.30
2022-12-26T04:22:17.398Z,81.50
2022-12-26T04:25:11.978Z,81.38
2022-12-26T04:27:57.800Z,81.50
2022-12-26T04:30:45.364Z,81.66
2022-12-26T04:33:38.845Z,81.51
2022-12-26T04:36:29.553Z,81.30
2022-12-26T04:39:19.703Z,81.61
2022-12-26T04:42:07.729Z,81.66
2022-12-26T04:44:37.223Z,81.40
2022-12-26T04:47:07.274Z,81.37
2022-12-26T04:50:01.166Z,81.31
2022-12-26T04:52:50.384Z,81.54
2022-12-26T04:55:19.411Z,81.31
2022-12-26T04:57:47.956Z,81.50
2022-12-26T05:00:17.112Z,81.16
2022-12-26T05:03:04.407Z,81.40
2022-12-26T05:06:08.009Z,81.15
2022-12-26T05:08:57.692Z,81.14
2022-12-26T05:11:26.179Z,81.17
2022-12-26T05:13:56.220Z,80.99
2022-12-26T05:16:43.104Z,81.16
2022-12-26T05:19:31.219Z,81.17
2022-12-26T05:22:18.224Z,81.27
2022-12-26T05:25:04.980Z,81.28
2022-12-26T05:27:55.329Z,81.30
2022-12-26T05:30:24.196Z,81.34
2022-12-26T05:33:10.354Z,81.13
2022-12-26T05:35:40.928Z,81.22
2022-12-26T05:38:11.648Z,81.29
2022-12-26T05:40:39.983Z,81.40
2022-12-26T05:43:08.259Z,81.20
2022-12-26T05:45:36.585Z,81.53
2022-12-26T05:48:05.121Z,81.26
2022-12-26T05:50:33.497Z,81.08
2022-12-26T05:53:04.025Z,81.51
2022-12-26T05:55:32.636Z,81.28
2022-12-26T05:58:01.795Z,81.34
2022-12-26T06:00:31.035Z,81.42
2022-12-26T06:03:02.134Z,81.26
2022-12-26T06:05:30.646Z,81.27
2022-12-26T06:07:58.989Z,81.41
2022-12-26T06:10:29.815Z,81.43
2022-12-26T06:12:58.210Z,81.50
2022-12-26T06:15:26.535Z,81.65
2022-12-26T06:17:55.906Z,81.42
2022-12-26T06:20:24.266Z,81.21
2022-12-26T06:22:53.022Z,81.19
2022-12-26T06:25:21.377Z,81.20
2022-12-26T06:27:51.097Z,81.17
2022-12-26T06:30:19.466Z,81.45
2022-12-26T06:32:47.814Z,81.72
2022-12-26T06:35:16.332Z,81.39
2022-12-26T06:37:44.722Z,81.52
2022-12-26T06:40:13.222Z,81.66
2022-12-26T06:42:41.605Z,81.77
2022-12-26T06:45:12.458Z,81.75
2022-12-26T06:47:40.822Z,81.84
2022-12-26T06:50:09.910Z,81.92
2022-12-26T06:52:41.260Z,81.64
2022-12-26T06:55:10.025Z,81.72
2022-12-26T06:57:38.374Z,81.96
2022-12-26T07:00:08.361Z,81.78
2022-12-26T07:02:38.341Z,82.02
2022-12-26T07:05:07.366Z,81.60
2022-12-26T07:07:35.761Z,81.38
2022-12-26T07:10:04.328Z,81.62
2022-12-26T07:12:35.482Z,81.37
2022-12-26T07:15:03.903Z,81.71
2022-12-26T07:17:32.224Z,81.60
2022-12-26T07:20:01.955Z,81.75
2022-12-26T07:22:30.489Z,81.24
2022-12-26T07:24:59.134Z,81.04
2022-12-26T07:27:27.528Z,81.24
2022-12-26T07:29:55.996Z,81.42
2022-12-26T07:32:24.382Z,81.17
2022-12-26T07:34:52.720Z,81.56
2022-12-26T07:37:22.402Z,80.97
2022-12-26T07:39:55.272Z,81.23
2022-12-26T07:42:27.188Z,81.37
2022-12-26T07:44:55.532Z,81.51
2022-12-26T07:47:23.926Z,81.21
2022-12-26T07:49:52.552Z,81.09
2022-12-26T07:52:23.140Z,80.99
2022-12-26T07:54:51.539Z,81.30
2022-12-26T07:57:47.503Z,80.79
2022-12-26T08:00:09.896Z,80.94
2022-12-26T08:02:38.384Z,80.68
2022-12-26T08:05:07.373Z,80.60
2022-12-26T08:07:37.129Z,80.79
2022-12-26T08:10:06.359Z,80.90
2022-12-26T08:12:35.798Z,80.77
2022-12-26T08:15:04.365Z,80.76
2022-12-26T08:17:32.873Z,80.70
2022-12-26T08:20:01.264Z,80.63
2022-12-26T08:22:29.645Z,80.66
2022-12-26T08:24:59.557Z,80.54
2022-12-26T08:27:27.931Z,80.59
2022-12-26T08:29:56.857Z,80.48
2022-12-26T08:32:25.249Z,80.44
2022-12-26T08:34:53.565Z,80.17
2022-12-26T08:37:23.963Z,80.29
2022-12-26T08:39:53.629Z,80.01
2022-12-26T08:42:23.904Z,80.23
2022-12-26T08:44:52.243Z,80.03
2022-12-26T08:47:20.676Z,80.08
2022-12-26T08:49:48.981Z,79.81
2022-12-26T08:52:17.383Z,79.80
2022-12-26T08:54:45.756Z,79.75
2022-12-26T08:57:14.127Z,79.80
2022-12-26T08:59:43.879Z,79.66
2022-12-26T09:02:13.111Z,79.69
2022-12-26T09:04:41.641Z,79.58
2022-12-26T09:07:10.339Z,79.49
2022-12-26T09:09:38.744Z,79.38
2022-12-26T09:12:07.424Z,79.47
2022-12-26T09:14:35.883Z,79.44
2022-12-26T09:17:05.825Z,79.26
2022-12-26T09:19:34.202Z,79.46
2022-12-26T09:22:20.311Z,79.51
2022-12-26T09:24:48.726Z,79.04
2022-12-26T09:27:17.168Z,78.93
2022-12-26T09:29:45.539Z,79.14
2022-12-26T09:32:15.492Z,79.18
2022-12-26T09:34:43.914Z,78.89
2022-12-26T09:37:12.237Z,78.89
2022-12-26T09:39:40.580Z,78.58
2022-12-26T09:42:20.586Z,78.61
2022-12-26T09:44:57.460Z,78.38
2022-12-26T09:47:33.813Z,77.92
2022-12-26T09:50:08.629Z,77.97
2022-12-26T09:52:42.828Z,77.73
2022-12-26T09:55:26.235Z,77.07
2022-12-26T09:57:59.433Z,77.18
2022-12-26T10:00:31.085Z,77.15
2022-12-26T10:03:01.489Z,77.17
2022-12-26T10:05:37.090Z,77.16
2022-12-26T10:08:22.113Z,76.94
2022-12-26T10:10:57.031Z,77.21
2022-12-26T10:13:33.804Z,76.92
2022-12-26T10:16:09.730Z,76.87
2022-12-26T10:18:51.695Z,76.50
2022-12-26T10:21:32.969Z,76.28
2022-12-26T10:24:04.906Z,75.99
2022-12-26T10:26:38.529Z,76.24
2022-12-26T10:29:16.414Z,76.35
2022-12-26T10:31:48.725Z,76.33
2022-12-26T10:34:22.357Z,76.71
2022-12-26T10:36:52.477Z,76.19
2022-12-26T10:39:26.169Z,76.23
2022-12-26T10:41:58.181Z,75.46
2022-12-26T10:44:28.030Z,76.07
2022-12-26T10:47:17.977Z,75.27
2022-12-26T10:49:48.942Z,75.40
2022-12-26T10:52:19.868Z,75.59
2022-12-26T10:55:28.680Z,75.50
2022-12-26T10:57:45.091Z,75.04
2022-12-26T11:00:20.803Z,74.83
2022-12-26T11:03:04.423Z,74.12
2022-12-26T11:08:28.003Z,74.25
2022-12-26T11:11:05.788Z,73.65
2022-12-26T11:13:38.714Z,74.05
2022-12-26T11:16:08.894Z,73.44
2022-12-26T11:18:41.667Z,73.29
2022-12-26T11:21:20.804Z,73.43
2022-12-26T11:23:51.582Z,72.88
2022-12-26T11:26:24.852Z,73.40
2022-12-26T11:29:07.923Z,72.71
2022-12-26T11:31:37.038Z,72.77
2022-12-26T11:34:09.833Z,72.10
2022-12-26T11:36:46.454Z,71.85
2022-12-26T11:39:23.269Z,71.12
2022-12-26T11:41:53.224Z,71.43
2022-12-26T11:44:27.943Z,71.58
2022-12-26T11:47:00.140Z,71.61
2022-12-26T11:49:33.041Z,71.27
2022-12-26T11:52:05.030Z,71.41
2022-12-26T11:54:36.192Z,72.03
2022-12-26T11:57:19.197Z,71.31
2022-12-26T11:59:48.696Z,72.00
2022-12-26T12:02:20.765Z,72.13
2022-12-26T12:04:50.822Z,72.17
2022-12-26T12:07:36.901Z,71.96
2022-12-26T12:10:25.272Z,72.04
2022-12-26T12:13:01.724Z,72.00
2022-12-26T12:15:37.482Z,71.67
2022-12-26T12:18:13.536Z,71.68
2022-12-26T12:20:53.868Z,71.78
2022-12-26T12:23:56.259Z,71.64
2022-12-26T12:26:34.245Z,71.98
2022-12-26T12:29:18.135Z,71.73
2022-12-26T12:31:59.230Z,71.82
2022-12-26T12:34:38.814Z,71.76
2022-12-26T12:37:22.690Z,72.38
2022-12-26T12:40:01.006Z,72.26
2022-12-26T12:42:41.194Z,72.16
2022-12-26T12:45:27.167Z,72.08
2022-12-26T12:48:12.781Z,72.00
2022-12-26T12:50:56.183Z,72.08
2022-12-26T12:53:38.945Z,71.89
2022-12-26T12:56:21.664Z,71.93
2022-12-26T12:59:00.964Z,71.92
2022-12-26T13:01:34.484Z,72.26
2022-12-26T13:04:10.473Z,72.28
2022-12-26T13:06:43.285Z,71.88
2022-12-26T13:09:16.891Z,72.43
2022-12-26T13:11:50.305Z,72.05
2022-12-26T13:14:22.881Z,72.21
2022-12-26T13:16:56.225Z,72.02
2022-12-26T13:19:28.516Z,72.40
2022-12-26T13:22:08.117Z,71.82
2022-12-26T13:24:40.713Z,72.18
2022-12-26T13:27:20.932Z,71.53
2022-12-26T13:29:50.535Z,72.32
2022-12-26T13:32:23.407Z,71.59
2022-12-26T13:34:53.161Z,71.89
2022-12-26T13:37:55.059Z,71.42
2022-12-26T13:40:28.602Z,72.17
2022-12-26T13:43:20.734Z,71.42
2022-12-26T13:45:52.824Z,72.16
2022-12-26T13:49:07.638Z,71.62
2022-12-26T13:51:53.332Z,72.23
2022-12-26T13:54:23.417Z,72.00
2022-12-26T13:57:25.029Z,72.49
2022-12-26T14:00:23.252Z,72.21
2022-12-26T14:03:40.590Z,72.35
2022-12-26T14:06:24.764Z,72.36
2022-12-26T14:09:09.741Z,72.71
2022-12-26T14:11:53.295Z,72.86
2022-12-26T14:14:32.869Z,73.42
2022-12-26T14:17:14.071Z,73.41
2022-12-26T14:19:51.391Z,73.50
2022-12-26T14:22:28.674Z,73.49
2022-12-26T14:25:09.470Z,73.86
2022-12-26T14:27:48.323Z,74.08
2022-12-26T14:30:24.379Z,74.02
2022-12-26T14:33:13.525Z,74.50
2022-12-26T14:35:54.588Z,74.78
2022-12-26T14:38:33.328Z,75.08
2022-12-26T14:41:06.093Z,75.87
2022-12-26T14:43:36.782Z,76.25
2022-12-26T14:46:10.747Z,76.62
2022-12-26T14:48:56.993Z,77.14
2022-12-26T14:51:38.799Z,77.72
2022-12-26T14:54:50.796Z,78.23
2022-12-26T14:57:45.841Z,78.26
2022-12-26T15:00:32.621Z,78.16
2022-12-26T15:03:28.692Z,78.50
2022-12-26T15:06:16.508Z,78.50
2022-12-26T15:09:04.412Z,79.30
2022-12-26T15:12:02.389Z,78.97
2022-12-26T15:15:15.062Z,79.30
2022-12-26T15:17:51.510Z,79.25
2022-12-26T15:20:50.049Z,79.72
2022-12-26T15:24:03.907Z,79.96
2022-12-26T15:27:11.931Z,79.83
2022-12-26T15:30:14.714Z,79.97
2022-12-26T15:32:52.570Z,80.45
2022-12-26T15:35:26.564Z,80.37
2022-12-26T15:38:08.547Z,80.84
2022-12-26T15:40:39.010Z,80.47
2022-12-26T15:43:29.379Z,80.79
2022-12-26T15:46:06.178Z,81.19
2022-12-26T15:48:51.905Z,81.89
2022-12-26T15:51:32.906Z,81.84
2022-12-26T15:54:13.853Z,81.70
2022-12-26T15:56:55.766Z,82.31
2022-12-26T16:00:05.293Z,82.58
2022-12-26T16:02:46.947Z,82.52
2022-12-26T16:05:42.072Z,82.86
2022-12-26T16:08:44.175Z,83.18
2022-12-26T16:11:19.828Z,83.12
2022-12-26T16:13:54.532Z,83.15
2022-12-26T16:16:30.639Z,83.02
2022-12-26T16:18:59.564Z,83.13
2022-12-26T16:21:47.406Z,83.25
2022-12-26T16:24:23.429Z,83.16
2022-12-26T16:26:51.825Z,83.22
2022-12-26T16:29:21.958Z,83.38
2022-12-26T16:31:52.145Z,82.97
2022-12-26T16:34:22.009Z,83.27
2022-12-26T16:36:51.432Z,83.92
2022-12-26T16:39:24.169Z,83.59
2022-12-26T16:42:02.194Z,83.85
2022-12-26T16:44:36.949Z,83.88
2022-12-26T16:47:14.664Z,83.81
2022-12-26T16:49:45.160Z,84.03
2022-12-26T16:52:34.208Z,84.40
2022-12-26T16:55:25.941Z,83.90
2022-12-26T16:57:57.396Z,83.63
2022-12-26T17:00:26.675Z,83.40
2022-12-26T17:03:00.776Z,83.53
2022-12-26T17:05:31.398Z,83.66
2022-12-26T17:08:02.666Z,83.55
2022-12-26T17:10:33.213Z,83.66
2022-12-26T17:13:04.612Z,83.61
2022-12-26T17:15:36.857Z,83.36
2022-12-26T17:18:38.608Z,83.78
2022-12-26T17:21:20.203Z,83.74
2022-12-26T17:24:05.310Z,83.84
2022-12-26T17:26:35.608Z,83.82
2022-12-26T17:29:04.097Z,83.92
2022-12-26T17:31:35.922Z,83.91
2022-12-26T17:34:09.169Z,83.94
2022-12-26T17:37:17.016Z,84.26
2022-12-26T17:39:28.361Z,83.62
2022-12-26T17:41:59.255Z,84.20
2022-12-26T17:44:38.221Z,83.87
2022-12-26T17:47:16.795Z,83.74
2022-12-26T17:49:45.438Z,84.06
2022-12-26T17:52:17.762Z,84.05
2022-12-26T17:54:46.353Z,84.19
2022-12-26T17:57:19.226Z,84.01
2022-12-26T17:59:47.933Z,84.17
2022-12-26T18:02:16.572Z,84.53
2022-12-26T18:04:45.090Z,83.95
2022-12-26T18:07:18.742Z,84.44
2022-12-26T18:09:47.921Z,84.72
2022-12-26T18:12:17.893Z,84.43
2022-12-26T18:14:46.365Z,84.46
2022-12-26T18:17:18.275Z,84.32
2022-12-26T18:19:47.021Z,84.39
2022-12-26T18:22:18.541Z,84.67
2022-12-26T18:24:46.977Z,83.95
2022-12-26T18:27:19.788Z,84.17
2022-12-26T18:29:49.627Z,84.06
2022-12-26T18:32:24.672Z,83.54
2022-12-26T18:34:53.864Z,83.88
2022-12-26T18:37:25.345Z,82.82
2022-12-26T18:39:54.233Z,83.06
2022-12-26T18:42:22.970Z,82.94
2022-12-26T18:44:51.385Z,82.25
2022-12-26T18:47:23.284Z,82.86
2022-12-26T18:49:52.058Z,82.82
2022-12-26T18:52:20.444Z,82.58
2022-12-26T18:54:50.177Z,82.25
2022-12-26T18:57:20.779Z,82.06
2022-12-26T18:59:49.443Z,82.28
2022-12-26T19:02:19.756Z,82.09
2022-12-26T19:04:51.012Z,82.01
2022-12-26T19:07:21.106Z,81.77
2022-12-26T19:09:54.967Z,81.64
2022-12-26T19:12:23.910Z,81.55
2022-12-26T19:14:53.213Z,81.56
2022-12-26T19:17:21.560Z,81.41
2022-12-26T19:19:50.009Z,81.23
2022-12-26T19:22:18.358Z,80.80
2022-12-26T19:24:46.749Z,81.09
2022-12-26T19:27:16.547Z,80.73
2022-12-26T19:29:44.877Z,80.58
2022-12-26T19:32:13.281Z,80.96
2022-12-26T19:34:41.719Z,80.90
2022-12-26T19:37:10.130Z,79.91
2022-12-26T19:39:38.466Z,80.27
2022-12-26T19:42:06.821Z,79.89
2022-12-26T19:44:36.552Z,79.70
2022-12-26T19:47:12.572Z,80.01
2022-12-26T19:49:41.707Z,79.87
2022-12-26T19:52:10.513Z,79.36
2022-12-26T19:54:39.672Z,79.44
2022-12-26T19:57:08.271Z,79.78
2022-12-26T19:59:38.013Z,79.23
2022-12-26T20:02:06.614Z,79.61
2022-12-26T20:04:35.073Z,79.18
2022-12-26T20:07:03.448Z,79.29
2022-12-26T20:09:31.883Z,79.90
2022-12-26T20:12:01.520Z,79.52
2022-12-26T20:14:32.359Z,79.63
2022-12-26T20:17:05.704Z,79.40
2022-12-26T20:19:36.342Z,79.73
2022-12-26T20:22:05.977Z,79.15
2022-12-26T20:24:35.658Z,79.45
2022-12-26T20:27:04.811Z,79.05
2022-12-26T20:29:33.891Z,79.36
2022-12-26T20:32:03.751Z,79.31
2022-12-26T20:34:32.105Z,79.10
2022-12-26T20:37:02.621Z,78.98
2022-12-26T20:39:32.018Z,78.71
2022-12-26T20:42:00.835Z,78.48
2022-12-26T20:44:29.207Z,78.56
2022-12-26T20:46:57.558Z,78.50
2022-12-26T20:49:27.276Z,78.92
2022-12-26T20:51:55.634Z,78.77
2022-12-26T20:54:24.794Z,78.94
2022-12-26T20:56:53.302Z,78.87
2022-12-26T20:59:21.825Z,78.62
2022-12-26T21:01:50.320Z,78.32
2022-12-26T21:04:21.161Z,78.69
2022-12-26T21:06:51.289Z,78.32
2022-12-26T21:09:19.647Z,78.13
2022-12-26T21:11:47.994Z,78.41
2022-12-26T21:14:19.217Z,78.12
2022-12-26T21:16:50.160Z,77.68
2022-12-26T21:19:19.692Z,77.76
2022-12-26T21:21:52.795Z,77.47
2022-12-26T21:24:24.092Z,77.68
2022-12-26T21:26:52.932Z,78.06
2022-12-26T21:29:25.110Z,77.60
2022-12-26T21:31:53.781Z,78.08
2022-12-26T21:34:24.265Z,77.09
2022-12-26T21:37:12.072Z,77.51
2022-12-26T21:39:40.846Z,77.11
2022-12-26T21:42:10.007Z,77.48
2022-12-26T21:44:38.841Z,77.11
2022-12-26T21:47:08.312Z,77.08
2022-12-26T21:49:36.933Z,77.67
2022-12-26T21:52:09.203Z,77.29
2022-12-26T21:54:54.903Z,77.27
2022-12-26T21:57:23.867Z,77.73
2022-12-26T21:59:58.791Z,77.65
2022-12-26T22:02:46.835Z,77.36
2022-12-26T22:05:15.453Z,76.93
2022-12-26T22:07:45.305Z,76.59
2022-12-26T22:10:34.560Z,77.01
2022-12-26T22:13:02.789Z,75.87
2022-12-26T22:15:48.757Z,76.31
2022-12-26T22:18:17.142Z,75.75
2022-12-26T22:23:35.554Z,76.12
2022-12-26T22:26:03.920Z,76.38
2022-12-26T22:28:32.383Z,76.33
2022-12-26T22:31:01.625Z,76.98
2022-12-26T22:33:30.896Z,77.16
2022-12-26T22:36:05.105Z,77.82
2022-12-26T22:38:35.362Z,77.56
2022-12-26T22:41:04.465Z,77.73
2022-12-26T22:43:33.337Z,78.42
2022-12-26T22:46:01.834Z,78.71
2022-12-26T22:48:30.299Z,78.57
2022-12-26T22:50:58.704Z,79.08
2022-12-26T22:53:28.266Z,79.11
2022-12-26T22:56:00.961Z,79.16
2022-12-26T22:58:30.317Z,79.22
2022-12-26T23:00:59.133Z,79.89
2022-12-26T23:03:28.684Z,80.01
2022-12-26T23:05:57.759Z,79.87
2022-12-26T23:08:28.583Z,80.13
2022-12-26T23:10:59.824Z,80.45
2022-12-26T23:13:28.736Z,80.20
2022-12-26T23:16:02.809Z,80.33
2022-12-26T23:18:55.217Z,80.77
2022-12-26T23:21:52.933Z,81.04
2022-12-26T23:24:23.940Z,80.87
2022-12-26T23:26:55.603Z,81.06
2022-12-26T23:29:43.164Z,81.03
2022-12-26T23:32:11.912Z,81.56
2022-12-26T23:34:40.266Z,80.91
2022-12-26T23:37:08.689Z,80.76
2022-12-26T23:39:37.107Z,81.17
2022-12-26T23:42:07.304Z,81.70
2022-12-26T23:44:35.658Z,81.61
2022-12-26T23:47:04.309Z,81.90
2022-12-26T23:49:32.735Z,81.96
2022-12-26T23:52:01.156Z,81.99
2022-12-26T23:54:29.506Z,82.04
2022-12-26T23:56:57.899Z,82.12
2022-12-26T23:59:27.861Z,82.10
